Aérodrome :
LOGIN :

S'inscrire | Disclaimer

   EN    FR    IT 

 










Légende :    VFR   VFR Marginal   IFR   IFR Intensif   IFR Très Intensif
Visi : 
Plafond : 
>= 8 km
>= 3000ft
5 à 8 km
1000 à 3000 ft
1500m à 5 km
500 à 1000 ft
800 à 1500m
200 à 500 ft
< 800m
< 200 ft
Symboles :   Orages  Brouillard  Fortes neiges  Fortes précipitations  Vent > 20 kt
SIGMETs :   Divers  Orages  Givrage  Turbulence  Onde Orograph.  Cendres Volcan.






- Altitude de l'aérodrome : 200 ft


EBBL - Klein Brogel AB

DERNIER METAR :
  • 091955Z AUTO 29003KT 6000 OVC012/// M00/M02 Q1007 GRN

METARs EXPIRÉS :
  • 091925Z AUTO VRB02KT 6000 OVC014/// M00/M02 Q1007 GRN
  • 090455Z AUTO VRB02KT 3000 BR OVC004/// 00/M00 Q1006 YLO
  • 091855Z AUTO VRB01KT 6000 OVC014/// M00/M02 Q1007 GRN
  • 091833Z AUTO VRB01KT 6000 OVC014/// M00/M02 Q1007 GRN
  • 091755Z AUTO 26003KT 7000 BKN010/// M00/M02 Q1006 GRN
  • 091725Z AUTO 23003KT 7000 OVC010/// 00/M02 Q1006 GRN

TAF TAF EBBL
Valide du 09 à 13h jusqu'au 09 à 22h UTC


091141Z 0913/0922 VRB03KT 4500 BR SCT006 BKN007
TEMPO 0913/0917 6000 NSW BKN010



MET'MAP, la Météo Aéronautique d'un coup d'oeil ! - Copyright ORBIFLY Décembre 2007 - Disclaimer

ORBIFLY MET'MAP TEAM :

Programmation & Développement : Alexandra Zaïnal
Sur une idée originale de : Baudouin d'Aumeries
Soutien technique & logistique : Manuel Goepfert
Assistance : Marc-Olivier Méhu




SOURCES & CREDITS :

   NOAA